createdAt,value
2022-07-25T00:02:15.108Z,21.79
2022-07-25T00:04:43.898Z,21.76
2022-07-25T00:07:12.800Z,21.77
2022-07-25T00:09:40.323Z,21.77
2022-07-25T00:12:08.481Z,21.75
2022-07-25T00:14:38.827Z,21.73
2022-07-25T00:17:06.361Z,21.70
2022-07-25T00:19:33.902Z,21.69
2022-07-25T00:22:01.381Z,21.67
2022-07-25T00:24:30.395Z,21.66
2022-07-25T00:26:57.933Z,21.64
2022-07-25T00:29:25.530Z,21.66
2022-07-25T00:31:52.992Z,21.66
2022-07-25T00:34:20.441Z,21.63
2022-07-25T00:36:47.984Z,21.61
2022-07-25T00:39:17.033Z,21.58
2022-07-25T00:41:46.137Z,21.60
2022-07-25T00:44:23.107Z,21.57
2022-07-25T00:46:52.876Z,21.56
2022-07-25T00:49:20.385Z,21.53
2022-07-25T00:51:48.564Z,21.51
2022-07-25T00:54:16.430Z,21.45
2022-07-25T00:56:44.296Z,21.47
2022-07-25T00:59:13.170Z,21.44
2022-07-25T01:01:42.644Z,21.44
2022-07-25T01:04:10.213Z,21.43
2022-07-25T01:06:37.831Z,21.43
2022-07-25T01:09:05.336Z,21.42
2022-07-25T01:11:32.889Z,21.42
2022-07-25T01:14:00.719Z,21.41
2022-07-25T01:16:29.679Z,21.40
2022-07-25T01:18:57.207Z,21.41
2022-07-25T01:21:26.442Z,21.40
2022-07-25T01:23:54.107Z,21.35
2022-07-25T01:26:21.617Z,21.41
2022-07-25T01:28:49.119Z,21.41
2022-07-25T01:31:16.744Z,21.39
2022-07-25T01:33:44.281Z,21.37
2022-07-25T01:36:12.123Z,21.34
2022-07-25T01:38:41.012Z,21.28
2022-07-25T01:41:08.618Z,21.34
2022-07-25T01:43:36.178Z,21.32
2022-07-25T01:46:03.744Z,21.30
2022-07-25T01:48:31.369Z,21.29
2022-07-25T01:50:58.967Z,21.27
2022-07-25T01:53:27.285Z,21.19
2022-07-25T01:55:56.206Z,21.19
2022-07-25T01:58:24.937Z,21.18
2022-07-25T02:00:52.917Z,21.16
2022-07-25T02:03:32.695Z,21.12
2022-07-25T02:06:03.783Z,21.12
2022-07-25T02:08:31.507Z,21.12
2022-07-25T02:11:01.162Z,21.10
2022-07-25T02:13:28.831Z,21.07
2022-07-25T02:15:56.346Z,21.04
2022-07-25T02:18:23.876Z,20.97
2022-07-25T02:20:51.398Z,20.98
2022-07-25T02:23:18.887Z,20.98
2022-07-25T02:25:46.427Z,20.98
2022-07-25T02:28:15.345Z,21.02
2022-07-25T02:30:42.901Z,21.01
2022-07-25T02:33:10.637Z,20.97
2022-07-25T02:35:38.166Z,20.95
2022-07-25T02:38:05.614Z,20.90
2022-07-25T02:40:33.121Z,20.82
2022-07-25T02:43:00.610Z,20.79
2022-07-25T02:45:29.430Z,20.76
2022-07-25T02:47:56.901Z,20.72
2022-07-25T02:50:24.421Z,20.68
2022-07-25T02:52:51.869Z,20.63
2022-07-25T02:55:19.355Z,20.60
2022-07-25T02:57:46.800Z,20.59
2022-07-25T03:00:15.765Z,20.57
2022-07-25T03:02:45.221Z,20.56
2022-07-25T03:05:15.360Z,20.54
2022-07-25T03:07:43.251Z,20.50
2022-07-25T03:10:13.822Z,20.21
2022-07-25T03:12:42.742Z,20.36
2022-07-25T03:15:12.086Z,20.37
2022-07-25T03:17:40.502Z,20.34
2022-07-25T03:20:10.521Z,20.33
2022-07-25T03:22:38.719Z,20.29
2022-07-25T03:25:15.972Z,20.27
2022-07-25T03:27:49.362Z,20.29
2022-07-25T03:30:17.107Z,20.30
2022-07-25T03:32:44.668Z,20.21
2022-07-25T03:35:13.494Z,20.27
2022-07-25T03:37:41.039Z,20.29
2022-07-25T03:40:09.503Z,20.27
2022-07-25T03:42:36.981Z,20.23
2022-07-25T03:45:05.313Z,20.22
2022-07-25T03:47:32.811Z,20.23
2022-07-25T03:50:00.304Z,20.20
2022-07-25T03:52:29.151Z,20.14
2022-07-25T03:54:56.666Z,20.15
2022-07-25T03:57:24.145Z,20.18
2022-07-25T03:59:51.623Z,20.18
2022-07-25T04:02:19.179Z,20.20
2022-07-25T04:04:46.838Z,20.21
2022-07-25T04:07:14.343Z,20.21
2022-07-25T04:09:43.329Z,20.24
2022-07-25T04:12:10.906Z,20.24
2022-07-25T04:14:38.634Z,20.20
2022-07-25T04:17:06.291Z,20.21
2022-07-25T04:19:34.000Z,20.16
2022-07-25T04:22:01.462Z,20.19
2022-07-25T04:24:28.930Z,20.18
2022-07-25T04:26:57.790Z,20.17
2022-07-25T04:29:25.302Z,20.18
2022-07-25T04:31:53.077Z,20.17
2022-07-25T04:34:21.109Z,20.18
2022-07-25T04:36:48.623Z,20.19
2022-07-25T04:39:16.223Z,20.22
2022-07-25T04:41:43.780Z,20.24
2022-07-25T04:44:12.610Z,20.24
2022-07-25T04:46:41.410Z,20.22
2022-07-25T04:49:09.215Z,20.24
2022-07-25T04:51:36.798Z,20.23
2022-07-25T04:54:04.769Z,20.28
2022-07-25T04:56:32.560Z,20.33
2022-07-25T04:59:06.126Z,20.34
2022-07-25T05:01:36.201Z,20.40
2022-07-25T05:04:04.017Z,20.55
2022-07-25T05:06:31.873Z,20.58
2022-07-25T05:08:59.402Z,20.61
2022-07-25T05:11:26.950Z,20.62
2022-07-25T05:13:54.482Z,20.64
2022-07-25T05:16:22.060Z,20.60
2022-07-25T05:18:50.973Z,20.67
2022-07-25T05:21:18.606Z,20.69
2022-07-25T05:23:46.107Z,20.65
2022-07-25T05:26:13.750Z,20.76
2022-07-25T05:28:41.477Z,20.70
2022-07-25T05:31:09.321Z,20.75
2022-07-25T05:33:37.675Z,20.83
2022-07-25T05:36:08.724Z,20.90
2022-07-25T05:38:36.234Z,21.00
2022-07-25T05:41:03.789Z,20.97
2022-07-25T05:43:31.380Z,21.04
2022-07-25T05:46:02.700Z,21.06
2022-07-25T05:48:30.396Z,21.11
2022-07-25T05:50:59.379Z,21.16
2022-07-25T05:53:28.187Z,21.20
2022-07-25T05:55:55.825Z,21.23
2022-07-25T05:58:29.132Z,21.22
2022-07-25T06:00:57.825Z,21.30
2022-07-25T06:03:25.445Z,21.38
2022-07-25T06:05:53.006Z,21.44
2022-07-25T06:08:20.474Z,21.49
2022-07-25T06:10:51.587Z,21.51
2022-07-25T06:13:20.754Z,21.59
2022-07-25T06:15:48.467Z,21.73
2022-07-25T06:18:15.998Z,21.80
2022-07-25T06:20:43.718Z,21.87
2022-07-25T06:23:11.203Z,21.93
2022-07-25T06:25:38.836Z,22.02
2022-07-25T06:28:07.831Z,22.12
2022-07-25T06:30:38.224Z,22.24
2022-07-25T06:33:05.702Z,22.31
2022-07-25T06:35:33.221Z,22.47
2022-07-25T06:38:00.744Z,22.58
2022-07-25T06:40:28.749Z,22.71
2022-07-25T06:42:56.304Z,22.85
2022-07-25T06:45:25.486Z,23.01
2022-07-25T06:47:53.078Z,23.15
2022-07-25T06:50:21.340Z,23.30
2022-07-25T06:52:50.000Z,23.44
2022-07-25T06:55:17.676Z,23.68
2022-07-25T06:57:45.201Z,23.77
2022-07-25T07:00:14.411Z,23.96
2022-07-25T07:02:55.876Z,24.09
2022-07-25T07:05:24.145Z,24.16
2022-07-25T07:07:51.761Z,24.38
2022-07-25T07:10:20.153Z,24.58
2022-07-25T07:12:47.888Z,24.71
2022-07-25T07:15:25.801Z,24.23
2022-07-25T07:17:54.854Z,25.01
2022-07-25T07:20:22.558Z,25.13
2022-07-25T07:22:50.549Z,25.26
2022-07-25T07:25:20.872Z,25.43
2022-07-25T07:27:49.119Z,25.53
2022-07-25T07:30:20.841Z,25.58
2022-07-25T07:32:51.640Z,25.69
2022-07-25T07:35:20.747Z,25.86
2022-07-25T07:37:48.445Z,25.89
2022-07-25T07:40:16.938Z,26.02
2022-07-25T07:42:47.392Z,26.12
2022-07-25T07:45:16.946Z,26.14
2022-07-25T07:47:45.077Z,26.29
2022-07-25T07:50:12.660Z,26.37
2022-07-25T07:52:41.493Z,26.43
2022-07-25T07:55:42.301Z,26.55
2022-07-25T07:58:10.262Z,26.71
2022-07-25T08:00:39.354Z,26.82
2022-07-25T08:03:08.661Z,26.95
2022-07-25T08:05:40.051Z,27.04
2022-07-25T08:08:11.559Z,27.19
2022-07-25T08:10:42.114Z,27.27
2022-07-25T08:13:18.445Z,27.44
2022-07-25T08:15:48.301Z,27.59
2022-07-25T08:18:17.624Z,27.66
2022-07-25T08:20:45.959Z,27.71
2022-07-25T08:23:15.296Z,27.80
2022-07-25T08:25:43.656Z,27.88
2022-07-25T08:28:11.920Z,27.99
2022-07-25T08:30:40.760Z,28.13
2022-07-25T08:33:10.801Z,28.28
2022-07-25T08:35:38.609Z,28.40
2022-07-25T08:38:06.743Z,28.47
2022-07-25T08:40:35.622Z,28.57
2022-07-25T08:43:03.247Z,28.73
2022-07-25T08:45:30.750Z,28.89
2022-07-25T08:47:58.242Z,28.97
2022-07-25T08:50:28.091Z,29.03
2022-07-25T08:53:10.409Z,29.13
2022-07-25T08:55:45.914Z,29.28
2022-07-25T08:58:15.279Z,29.29
2022-07-25T09:00:44.109Z,29.57
2022-07-25T09:03:12.168Z,29.67
2022-07-25T09:05:40.849Z,29.68
2022-07-25T09:08:11.063Z,29.76
2022-07-25T09:10:42.330Z,29.91
2022-07-25T09:13:14.293Z,30.09
2022-07-25T09:15:46.162Z,29.99
2022-07-25T09:18:17.056Z,29.77
2022-07-25T09:20:46.850Z,29.61
2022-07-25T09:23:15.726Z,29.67
2022-07-25T09:25:43.551Z,29.79
2022-07-25T09:28:18.026Z,29.97
2022-07-25T09:30:55.951Z,30.38
2022-07-25T09:33:24.782Z,30.68
2022-07-25T09:35:52.783Z,30.67
2022-07-25T09:38:21.645Z,31.04
2022-07-25T09:40:56.983Z,30.87
2022-07-25T09:43:37.377Z,31.40
2022-07-25T09:46:05.570Z,31.48
2022-07-25T09:48:33.448Z,31.77
2022-07-25T09:51:01.238Z,31.89
2022-07-25T09:53:29.337Z,31.98
2022-07-25T09:55:57.567Z,31.94
2022-07-25T09:58:26.907Z,32.20
2022-07-25T10:01:01.738Z,32.16
2022-07-25T10:03:40.375Z,32.30
2022-07-25T10:06:16.067Z,32.57
2022-07-25T10:08:44.502Z,32.92
2022-07-25T10:11:31.446Z,32.84
2022-07-25T10:14:11.094Z,33.13
2022-07-25T10:16:46.808Z,33.17
2022-07-25T10:19:14.641Z,33.20
2022-07-25T10:21:42.433Z,33.24
2022-07-25T10:24:11.727Z,33.28
2022-07-25T10:26:40.955Z,33.38
2022-07-25T10:29:11.494Z,33.61
2022-07-25T10:31:49.424Z,33.62
2022-07-25T10:34:17.842Z,33.74
2022-07-25T10:36:48.017Z,33.74
2022-07-25T10:39:16.948Z,33.84
2022-07-25T10:41:50.472Z,33.82
2022-07-25T10:44:19.390Z,34.15
2022-07-25T10:46:47.251Z,34.27
2022-07-25T10:49:23.612Z,34.17
2022-07-25T10:51:58.250Z,34.30
2022-07-25T10:54:26.707Z,34.42
2022-07-25T10:56:57.108Z,34.40
2022-07-25T10:59:35.200Z,34.38
2022-07-25T11:02:03.747Z,34.52
2022-07-25T11:04:31.502Z,34.55
2022-07-25T11:06:59.095Z,34.75
2022-07-25T11:09:28.631Z,34.81
2022-07-25T11:11:58.026Z,34.86
2022-07-25T11:14:27.477Z,34.82
2022-07-25T11:16:56.911Z,34.85
2022-07-25T11:19:27.209Z,34.85
2022-07-25T11:21:56.832Z,34.85
2022-07-25T11:24:35.271Z,35.04
2022-07-25T11:27:02.742Z,34.84
2022-07-25T11:29:30.246Z,34.80
2022-07-25T11:32:00.483Z,34.93
2022-07-25T11:34:29.988Z,34.95
2022-07-25T11:36:59.377Z,35.00
2022-07-25T11:39:28.416Z,35.12
2022-07-25T11:42:07.674Z,34.98
2022-07-25T11:44:37.234Z,34.73
2022-07-25T11:47:08.161Z,34.80
2022-07-25T11:49:45.825Z,34.88
2022-07-25T11:52:21.635Z,34.92
2022-07-25T11:54:57.005Z,34.85
2022-07-25T11:57:26.370Z,34.84
2022-07-25T11:59:55.127Z,34.91
2022-07-25T12:02:26.253Z,35.10
2022-07-25T12:04:58.352Z,34.97
2022-07-25T12:07:44.534Z,35.57
2022-07-25T12:10:15.654Z,37.13
2022-07-25T12:12:49.648Z,38.13
2022-07-25T12:15:19.915Z,38.69
2022-07-25T12:17:49.554Z,39.34
2022-07-25T12:20:18.606Z,39.76
2022-07-25T12:22:46.570Z,39.35
2022-07-25T12:25:14.254Z,39.03
2022-07-25T12:27:42.380Z,38.38
2022-07-25T12:30:11.530Z,37.79
2022-07-25T12:32:39.656Z,37.33
2022-07-25T12:35:10.850Z,37.18
2022-07-25T12:37:39.283Z,36.91
2022-07-25T12:40:09.811Z,36.68
2022-07-25T12:42:37.468Z,36.61
2022-07-25T12:45:05.785Z,36.30
2022-07-25T12:47:33.307Z,36.36
2022-07-25T12:50:01.207Z,36.18
2022-07-25T12:52:30.143Z,36.21
2022-07-25T12:54:57.641Z,36.03
2022-07-25T12:57:25.535Z,35.95
2022-07-25T12:59:53.053Z,35.73
2022-07-25T13:02:20.650Z,35.51
2022-07-25T13:04:48.978Z,35.68
2022-07-25T13:07:17.011Z,35.81
2022-07-25T13:09:45.884Z,35.48
2022-07-25T13:12:16.381Z,35.30
2022-07-25T13:14:44.231Z,35.51
2022-07-25T13:17:12.095Z,35.36
2022-07-25T13:19:39.624Z,35.25
2022-07-25T13:22:07.507Z,35.31
2022-07-25T13:24:35.237Z,35.31
2022-07-25T13:27:05.634Z,35.30
2022-07-25T13:29:33.191Z,35.29
2022-07-25T13:32:02.900Z,35.30
2022-07-25T13:34:31.839Z,35.07
2022-07-25T13:36:59.396Z,35.08
2022-07-25T13:39:27.264Z,34.91
2022-07-25T13:41:54.887Z,35.10
2022-07-25T13:44:23.729Z,34.88
2022-07-25T13:46:51.254Z,34.94
2022-07-25T13:49:19.224Z,35.04
2022-07-25T13:51:47.601Z,35.02
2022-07-25T13:54:15.174Z,35.21
2022-07-25T13:56:43.219Z,35.29
2022-07-25T13:59:14.496Z,35.41
2022-07-25T14:01:47.522Z,35.33
2022-07-25T14:04:15.156Z,35.34
2022-07-25T14:06:42.911Z,35.42
2022-07-25T14:09:10.813Z,35.52
2022-07-25T14:11:38.508Z,35.56
2022-07-25T14:14:06.011Z,35.60
2022-07-25T14:16:34.674Z,35.57
2022-07-25T14:19:03.743Z,35.65
2022-07-25T14:21:31.344Z,35.66
2022-07-25T14:23:58.818Z,35.81
2022-07-25T14:26:28.213Z,35.71
2022-07-25T14:28:55.787Z,35.54
2022-07-25T14:31:23.665Z,35.43
2022-07-25T14:33:51.368Z,35.26
2022-07-25T14:36:20.446Z,35.24
2022-07-25T14:38:48.445Z,35.07
2022-07-25T14:41:16.546Z,35.09
2022-07-25T14:43:44.088Z,34.98
2022-07-25T14:46:11.694Z,34.80
2022-07-25T14:48:39.639Z,34.74
2022-07-25T14:51:08.086Z,34.70
2022-07-25T14:53:38.145Z,34.69
2022-07-25T14:56:07.251Z,34.47
2022-07-25T14:58:35.390Z,34.32
2022-07-25T15:01:03.019Z,34.29
2022-07-25T15:03:30.690Z,34.36
2022-07-25T15:05:58.919Z,34.24
2022-07-25T15:08:26.558Z,34.15
2022-07-25T15:10:55.809Z,34.09
2022-07-25T15:13:32.074Z,34.04
2022-07-25T15:16:00.149Z,33.97
2022-07-25T15:18:28.255Z,33.92
2022-07-25T15:20:55.811Z,33.89
2022-07-25T15:23:24.913Z,33.83
2022-07-25T15:26:02.296Z,33.79
2022-07-25T15:28:33.728Z,33.88
2022-07-25T15:31:01.463Z,33.96
2022-07-25T15:33:29.399Z,34.00
2022-07-25T15:35:57.054Z,33.96
2022-07-25T15:38:24.825Z,33.86
2022-07-25T15:40:52.605Z,33.78
2022-07-25T15:43:20.228Z,33.73
2022-07-25T15:45:49.128Z,33.92
2022-07-25T15:48:18.063Z,33.93
2022-07-25T15:50:47.108Z,33.88
2022-07-25T15:53:15.080Z,33.67
2022-07-25T15:55:43.611Z,34.00
2022-07-25T15:58:12.123Z,34.17
2022-07-25T16:00:40.815Z,34.04
2022-07-25T16:03:10.391Z,34.06
2022-07-25T16:05:39.820Z,33.98
2022-07-25T16:08:08.562Z,34.08
2022-07-25T16:10:36.585Z,34.19
2022-07-25T16:13:04.428Z,34.26
2022-07-25T16:15:32.110Z,33.99
2022-07-25T16:18:02.598Z,34.04
2022-07-25T16:20:33.295Z,33.70
2022-07-25T16:23:01.228Z,33.83
2022-07-25T16:25:30.793Z,33.72
2022-07-25T16:27:59.501Z,33.85
2022-07-25T16:30:27.443Z,33.79
2022-07-25T16:32:55.573Z,33.78
2022-07-25T16:35:23.492Z,33.76
2022-07-25T16:37:52.867Z,33.52
2022-07-25T16:40:21.119Z,33.63
2022-07-25T16:42:49.720Z,33.53
2022-07-25T16:45:17.330Z,33.49
2022-07-25T16:47:44.894Z,33.16
2022-07-25T16:50:12.399Z,33.03
2022-07-25T16:52:40.065Z,32.93
2022-07-25T16:55:09.850Z,32.62
2022-07-25T16:57:39.036Z,32.37
2022-07-25T17:00:09.268Z,31.94
2022-07-25T17:02:37.223Z,31.99
2022-07-25T17:05:05.519Z,31.71
2022-07-25T17:07:33.289Z,31.63
2022-07-25T17:10:00.777Z,31.48
2022-07-25T17:12:29.692Z,31.38
2022-07-25T17:14:57.184Z,30.92
2022-07-25T17:17:24.694Z,31.04
2022-07-25T17:19:55.412Z,31.03
2022-07-25T17:22:27.013Z,31.05
2022-07-25T17:24:54.511Z,30.79
2022-07-25T17:27:22.015Z,30.58
2022-07-25T17:29:50.990Z,30.28
2022-07-25T17:32:18.544Z,29.93
2022-07-25T17:34:47.086Z,29.60
2022-07-25T17:37:14.687Z,29.40
2022-07-25T17:39:42.403Z,29.37
2022-07-25T17:42:09.976Z,29.26
2022-07-25T17:44:37.655Z,29.11
2022-07-25T17:47:07.317Z,28.96
2022-07-25T17:49:35.018Z,28.78
2022-07-25T17:52:02.542Z,28.57
2022-07-25T17:54:30.109Z,28.60
2022-07-25T17:56:58.718Z,28.41
2022-07-25T17:59:26.247Z,28.46
2022-07-25T18:01:53.834Z,28.27
2022-07-25T18:04:23.256Z,28.19
2022-07-25T18:06:50.981Z,27.96
2022-07-25T18:09:20.319Z,27.95
2022-07-25T18:11:47.952Z,27.95
2022-07-25T18:14:15.484Z,27.90
2022-07-25T18:16:45.417Z,27.73
2022-07-25T18:19:13.269Z,27.59
2022-07-25T18:21:42.111Z,27.48
2022-07-25T18:24:10.245Z,27.10
2022-07-25T18:26:38.171Z,27.26
2022-07-25T18:29:06.591Z,27.11
2022-07-25T18:31:34.262Z,27.05
2022-07-25T18:34:02.205Z,26.97
2022-07-25T18:36:30.912Z,26.77
2022-07-25T18:38:59.793Z,26.63
2022-07-25T18:41:29.589Z,26.57
2022-07-25T18:43:57.584Z,26.61
2022-07-25T18:46:25.542Z,26.49
2022-07-25T18:48:53.897Z,26.36
2022-07-25T18:51:21.621Z,26.02
2022-07-25T18:53:49.579Z,26.31
2022-07-25T18:56:18.500Z,26.23
2022-07-25T18:58:46.586Z,26.17
2022-07-25T19:01:14.279Z,26.12
2022-07-25T19:03:41.901Z,25.95
2022-07-25T19:06:11.832Z,26.00
2022-07-25T19:08:39.632Z,25.97
2022-07-25T19:11:08.569Z,25.93
2022-07-25T19:13:49.553Z,25.95
2022-07-25T19:16:18.739Z,25.94
2022-07-25T19:18:46.551Z,25.89
2022-07-25T19:21:15.251Z,25.89
2022-07-25T19:23:46.980Z,25.81
2022-07-25T19:26:17.977Z,25.82
2022-07-25T19:28:47.109Z,25.78
2022-07-25T19:31:14.904Z,25.79
2022-07-25T19:33:42.788Z,25.77
2022-07-25T19:36:10.990Z,25.76
2022-07-25T19:38:38.777Z,25.73
2022-07-25T19:41:06.530Z,25.66
2022-07-25T19:43:34.017Z,25.64
2022-07-25T19:46:02.977Z,25.63
2022-07-25T19:48:30.663Z,25.19
2022-07-25T19:50:58.256Z,25.59
2022-07-25T19:53:28.635Z,25.54
2022-07-25T19:55:56.464Z,25.49
2022-07-25T19:58:24.055Z,25.46
2022-07-25T20:00:51.672Z,25.46
2022-07-25T20:03:23.384Z,25.30
2022-07-25T20:05:52.036Z,25.42
2022-07-25T20:08:19.750Z,25.43
2022-07-25T20:10:47.346Z,25.42
2022-07-25T20:13:15.277Z,25.41
2022-07-25T20:15:42.835Z,25.39
2022-07-25T20:18:10.420Z,25.38
2022-07-25T20:20:39.413Z,25.37
2022-07-25T20:23:07.014Z,25.35
2022-07-25T20:25:34.540Z,25.35
2022-07-25T20:28:02.408Z,25.33
2022-07-25T20:30:34.625Z,25.28
2022-07-25T20:33:05.386Z,25.30
2022-07-25T20:35:39.448Z,25.13
2022-07-25T20:38:09.643Z,25.23
2022-07-25T20:40:38.074Z,25.16
2022-07-25T20:43:09.194Z,25.18
2022-07-25T20:45:37.219Z,25.15
2022-07-25T20:48:08.045Z,25.11
2022-07-25T20:50:37.795Z,25.08
2022-07-25T20:53:07.338Z,25.01
2022-07-25T20:55:35.444Z,24.90
2022-07-25T20:58:03.826Z,24.85
2022-07-25T21:00:31.894Z,24.78
2022-07-25T21:03:00.267Z,24.73
2022-07-25T21:05:28.396Z,24.60
2022-07-25T21:07:56.199Z,24.63
2022-07-25T21:10:25.500Z,24.47
2022-07-25T21:12:55.866Z,24.55
2022-07-25T21:15:24.288Z,24.56
2022-07-25T21:17:52.017Z,24.53
2022-07-25T21:20:19.624Z,24.50
2022-07-25T21:22:47.331Z,24.46
2022-07-25T21:25:15.083Z,24.45
2022-07-25T21:27:43.907Z,24.45
2022-07-25T21:30:12.336Z,24.43
2022-07-25T21:32:41.162Z,24.38
2022-07-25T21:35:09.570Z,24.37
2022-07-25T21:37:37.128Z,24.46
2022-07-25T21:40:05.466Z,24.42
2022-07-25T21:42:33.320Z,24.42
2022-07-25T21:45:02.150Z,24.39
2022-07-25T21:47:29.626Z,24.36
2022-07-25T21:50:19.236Z,24.31
2022-07-25T21:52:52.841Z,24.16
2022-07-25T21:55:21.488Z,24.14
2022-07-25T21:57:49.651Z,24.07
2022-07-25T22:00:19.731Z,23.90
2022-07-25T22:02:48.023Z,24.01
2022-07-25T22:05:17.072Z,23.93
2022-07-25T22:07:46.665Z,23.90
2022-07-25T22:10:16.283Z,23.86
2022-07-25T22:12:44.086Z,23.80
2022-07-25T22:15:13.058Z,23.76
2022-07-25T22:17:48.232Z,23.70
2022-07-25T22:20:17.698Z,23.62
2022-07-25T22:22:45.182Z,23.55
2022-07-25T22:25:12.836Z,23.51
2022-07-25T22:27:40.394Z,23.45
2022-07-25T22:30:12.230Z,23.37
2022-07-25T22:32:43.699Z,23.30
2022-07-25T22:35:11.324Z,23.14
2022-07-25T22:37:38.784Z,23.15
2022-07-25T22:40:07.643Z,23.11
2022-07-25T22:42:35.150Z,23.11
2022-07-25T22:45:02.691Z,23.11
2022-07-25T22:47:30.170Z,23.09
2022-07-25T22:49:59.081Z,23.06
2022-07-25T22:52:26.615Z,23.05
2022-07-25T22:54:54.103Z,23.05
2022-07-25T22:57:21.595Z,22.97
2022-07-25T22:59:49.533Z,23.03
2022-07-25T23:02:17.302Z,23.00
2022-07-25T23:04:44.810Z,23.02
2022-07-25T23:07:13.682Z,23.02
2022-07-25T23:09:41.232Z,23.02
2022-07-25T23:12:09.434Z,23.01
2022-07-25T23:14:37.002Z,23.02
2022-07-25T23:17:20.772Z,23.02
2022-07-25T23:19:51.311Z,23.01
2022-07-25T23:22:22.193Z,22.99
2022-07-25T23:24:50.445Z,22.98
2022-07-25T23:27:19.031Z,22.96
2022-07-25T23:29:46.546Z,22.94
2022-07-25T23:32:14.223Z,22.91
2022-07-25T23:34:41.802Z,22.83
2022-07-25T23:37:09.321Z,22.87
2022-07-25T23:39:38.245Z,22.85
2022-07-25T23:42:05.830Z,22.82
2022-07-25T23:44:33.367Z,22.76
2022-07-25T23:47:04.264Z,22.69
2022-07-25T23:49:34.724Z,22.65
2022-07-25T23:52:02.214Z,22.62
2022-07-25T23:54:29.759Z,22.61
2022-07-25T23:56:58.592Z,22.57
2022-07-25T23:59:26.130Z,22.51
